Time;durP1;ratioP1;P1;durP2;ratioP2;P2;SDS_P1;SDS_P2;PMS_P1;PMS_P2;Temp;Humidity;BMP_temperature;BMP_pressure;BME280_temperature;BME280_humidity;BME280_pressure;Samples;Min_cycle;Max_cycle;Signal;HPM_P1;HPM_P2
2021/03/25 00:01:41;;;;;;;80.15;39.85;;;;;;;4.33;87.67;101991.22;4996913;28;20045;-74
2021/03/25 00:04:06;;;;;;;77.35;38.90;;;;;;;4.25;88.12;101994.19;4982288;28;20038;-76
2021/03/25 00:06:36;;;;;;;70.97;36.15;;;;;;;4.16;87.68;101989.44;5029074;28;20099;-77
2021/03/25 00:09:06;;;;;;;86.10;40.42;;;;;;;4.13;88.26;101994.81;5016725;28;20532;-76
2021/03/25 00:11:32;;;;;;;79.65;43.15;;;;;;;4.05;88.91;101995.19;5032016;28;20553;-74
2021/03/25 00:13:57;;;;;;;88.97;43.17;;;;;;;3.94;89.48;102012.16;5020488;28;20046;-77
2021/03/25 00:16:23;;;;;;;95.85;44.50;;;;;;;3.82;89.88;102008.38;4989497;28;20045;-75
2021/03/25 00:18:48;;;;;;;94.88;45.60;;;;;;;3.74;91.32;102016.53;4993641;28;20621;-77
2021/03/25 00:21:14;;;;;;;94.65;43.25;;;;;;;3.65;90.75;102009.16;5024001;28;20058;-77
2021/03/25 00:23:39;;;;;;;86.07;42.85;;;;;;;3.60;90.98;102003.34;5020872;28;20115;-77
2021/03/25 00:26:06;;;;;;;81.22;41.88;;;;;;;3.59;90.09;102007.69;4996668;28;20034;-77
2021/03/25 00:28:34;;;;;;;74.05;38.38;;;;;;;3.56;89.88;102002.66;4989970;28;20049;-75
2021/03/25 00:31:00;;;;;;;78.18;41.72;;;;;;;3.55;90.43;102006.16;5008533;28;20042;-77
2021/03/25 00:33:25;;;;;;;75.15;37.60;;;;;;;3.49;90.06;101996.91;5013468;28;20041;-75
2021/03/25 00:35:51;;;;;;;84.07;39.60;;;;;;;3.50;89.68;101993.41;5009867;28;20042;-77
2021/03/25 00:38:18;;;;;;;81.53;41.20;;;;;;;3.53;89.54;101999.38;5017959;28;20627;-75
2021/03/25 00:40:46;;;;;;;89.30;41.03;;;;;;;3.61;89.92;101998.09;5009150;28;20049;-76
2021/03/25 00:43:13;;;;;;;85.93;40.33;;;;;;;3.61;90.36;101992.06;4994214;28;20041;-73
2021/03/25 00:45:43;;;;;;;88.57;41.47;;;;;;;3.62;90.20;101999.78;4994336;28;20038;-76
2021/03/25 00:48:13;;;;;;;87.90;40.25;;;;;;;3.59;89.82;101999.06;5009055;28;20046;-79
2021/03/25 00:51:04;;;;;;;88.30;43.00;;;;;;;3.57;90.61;102006.09;5021133;28;20504;-75
2021/03/25 00:53:35;;;;;;;85.75;42.42;;;;;;;3.56;90.81;102013.03;4993217;28;20060;-76
2021/03/25 00:56:02;;;;;;;83.68;41.00;;;;;;;3.48;90.60;102020.31;5021473;28;20073;-78
2021/03/25 00:58:28;;;;;;;80.05;40.95;;;;;;;3.42;90.10;102011.06;5004030;28;20038;-76
2021/03/25 01:00:58;;;;;;;82.72;40.92;;;;;;;3.32;89.85;102009.78;4993076;28;20088;-77
2021/03/25 01:03:25;;;;;;;80.60;40.13;;;;;;;3.34;89.94;102013.16;5021913;28;20038;-77
2021/03/25 01:05:52;;;;;;;81.60;40.72;;;;;;;3.30;89.61;102011.63;5020630;28;20076;-75
2021/03/25 01:08:17;;;;;;;86.75;42.08;;;;;;;3.33;90.01;102003.69;5013711;28;20077;-74
2021/03/25 01:10:50;;;;;;;82.53;40.25;;;;;;;3.28;89.70;102014.28;4984511;28;20062;-77
2021/03/25 01:13:40;;;;;;;97.97;45.20;;;;;;;3.31;90.92;102014.16;4994045;28;20045;-80
2021/03/25 01:16:09;;;;;;;91.65;43.90;;;;;;;3.28;91.14;102010.84;5014465;28;20420;-77
2021/03/25 01:18:35;;;;;;;95.07;43.40;;;;;;;3.21;90.45;102015.44;5013972;28;20042;-76
2021/03/25 01:21:00;;;;;;;91.75;42.95;;;;;;;3.15;90.68;102020.91;4993220;28;20609;-75
2021/03/25 01:23:26;;;;;;;89.70;43.05;;;;;;;3.11;90.51;102009.00;5009733;28;20124;-77
2021/03/25 01:25:52;;;;;;;85.45;41.35;;;;;;;3.09;90.49;102009.06;5018512;28;20045;-74
2021/03/25 01:28:20;;;;;;;97.05;44.70;;;;;;;3.07;90.44;102010.88;4993948;28;20068;-77
2021/03/25 01:30:48;;;;;;;94.10;45.08;;;;;;;3.05;90.08;102009.25;5007521;28;20041;-75
2021/03/25 01:33:18;;;;;;;85.80;42.45;;;;;;;3.05;89.83;102004.06;4991729;28;20099;-75
2021/03/25 01:35:44;;;;;;;103.50;46.78;;;;;;;3.06;90.61;102008.34;5019258;28;20061;-76
2021/03/25 01:38:12;;;;;;;97.03;44.83;;;;;;;3.03;90.84;102006.75;4966565;28;20054;-77
2021/03/25 01:40:54;;;;;;;94.15;44.65;;;;;;;3.02;91.59;102014.59;5016713;28;20045;-76
2021/03/25 01:43:30;;;;;;;94.97;45.35;;;;;;;3.03;91.65;102019.72;4990440;28;20042;-74
2021/03/25 01:46:01;;;;;;;93.72;44.67;;;;;;;3.00;91.46;102017.22;5003528;28;20106;-77
2021/03/25 01:48:33;;;;;;;89.13;44.08;;;;;;;2.93;91.51;102013.22;4992921;28;20121;-77
2021/03/25 01:51:06;;;;;;;95.00;44.55;;;;;;;2.92;91.54;102014.97;5009082;28;20045;-76
2021/03/25 01:54:03;;;;;;;91.50;41.63;;;;;;;2.85;91.13;102026.50;5011560;28;20195;-78
2021/03/25 01:56:48;;;;;;;88.88;40.78;;;;;;;2.81;90.94;102030.13;5009352;28;20046;-77
2021/03/25 01:59:42;;;;;;;91.13;42.33;;;;;;;2.74;90.62;102023.53;5002541;28;20134;-76
2021/03/25 02:02:17;;;;;;;86.97;42.95;;;;;;;2.71;90.51;102024.50;4990369;28;20069;-75
2021/03/25 02:05:08;;;;;;;91.18;44.78;;;;;;;2.74;91.09;102018.34;5017344;28;20046;-77
2021/03/25 02:07:58;;;;;;;89.20;42.42;;;;;;;2.72;91.31;102017.56;4986411;28;20038;-76
2021/03/25 02:10:35;;;;;;;96.13;43.67;;;;;;;2.71;91.23;102019.31;4987271;28;20427;-77
2021/03/25 02:13:15;;;;;;;86.43;41.65;;;;;;;2.72;91.00;102010.63;5009820;28;20061;-77
2021/03/25 02:15:54;;;;;;;89.65;42.53;;;;;;;2.74;91.50;102010.56;4998495;28;20042;-77
2021/03/25 02:18:30;;;;;;;82.53;39.42;;;;;;;2.77;91.32;102007.84;5006146;28;20046;-78
2021/03/25 02:21:30;;;;;;;81.32;39.78;;;;;;;2.85;91.60;102008.38;4995571;28;20046;-78
2021/03/25 02:24:17;;;;;;;95.90;43.88;;;;;;;2.88;92.95;102007.38;5011759;28;20186;-76
2021/03/25 02:26:54;;;;;;;95.10;44.05;;;;;;;2.90;92.88;102014.19;4994769;28;20045;-76
2021/03/25 02:29:37;;;;;;;100.38;45.25;;;;;;;2.95;93.04;102005.38;5020567;28;20495;-76
2021/03/25 02:32:10;;;;;;;98.28;44.83;;;;;;;3.00;93.04;102006.88;4995011;28;20049;-76
2021/03/25 02:34:49;;;;;;;101.88;45.80;;;;;;;3.08;93.25;102001.34;5017550;28;20046;-75
2021/03/25 02:37:25;;;;;;;95.82;44.80;;;;;;;3.15;92.81;102001.94;5010748;28;20050;-76
2021/03/25 02:40:07;;;;;;;96.28;45.08;;;;;;;3.19;92.59;101996.53;5021453;28;20472;-77
2021/03/25 02:42:43;;;;;;;96.30;46.00;;;;;;;3.20;92.78;101994.78;5010027;28;20057;-77
2021/03/25 02:45:18;;;;;;;100.05;45.50;;;;;;;3.25;92.72;101993.66;4994653;28;20041;-77
2021/03/25 02:47:46;;;;;;;102.50;47.72;;;;;;;3.23;92.93;101987.69;4993103;28;20120;-77
2021/03/25 02:50:16;;;;;;;103.63;46.15;;;;;;;3.29;92.94;101999.56;5010905;28;20080;-77
2021/03/25 02:52:50;;;;;;;98.75;45.20;;;;;;;3.33;92.85;101989.88;4994685;28;20092;-76
2021/03/25 02:55:17;;;;;;;97.75;44.95;;;;;;;3.36;93.26;101990.59;5009999;28;20053;-75
2021/03/25 02:58:01;;;;;;;102.07;46.80;;;;;;;3.42;92.45;101990.31;5004014;28;20091;-75
2021/03/25 03:00:39;;;;;;;112.63;50.70;;;;;;;3.54;93.19;101985.47;4996659;28;20107;-77
2021/03/25 03:03:10;;;;;;;119.72;51.80;;;;;;;3.59;93.89;101997.31;5003704;28;20046;-75
2021/03/25 03:06:11;;;;;;;116.10;50.80;;;;;;;3.61;93.75;101989.47;4993933;28;20060;-77
2021/03/25 03:08:46;;;;;;;98.40;45.95;;;;;;;3.61;93.46;101994.66;5010586;28;20042;-75
2021/03/25 03:11:26;;;;;;;104.38;46.67;;;;;;;3.57;92.98;101993.13;5016716;28;20033;-77
2021/03/25 03:14:00;;;;;;;106.00;49.83;;;;;;;3.52;93.23;101988.13;5010519;28;20567;-76
2021/03/25 03:16:35;;;;;;;120.63;50.40;;;;;;;3.54;93.56;101995.84;5007064;28;20049;-73
2021/03/25 03:19:25;;;;;;;124.30;52.83;;;;;;;3.58;93.14;101992.19;4990813;28;20411;-77
2021/03/25 03:21:56;;;;;;;112.28;51.53;;;;;;;3.60;93.23;101993.81;5010354;28;20500;-75
2021/03/25 03:24:48;;;;;;;114.47;51.03;;;;;;;3.61;93.24;101986.88;4992928;28;20042;-76
2021/03/25 03:27:47;;;;;;;106.95;47.65;;;;;;;3.58;93.48;101987.88;5010131;28;20576;-77
2021/03/25 03:30:21;;;;;;;104.38;49.13;;;;;;;3.55;93.18;101989.75;5014438;28;20120;-76
2021/03/25 03:33:12;;;;;;;108.63;51.65;;;;;;;3.49;93.14;101986.53;5003195;28;20139;-78
2021/03/25 03:35:42;;;;;;;105.20;48.17;;;;;;;3.45;93.51;101985.00;5024789;28;20091;-77
2021/03/25 03:38:17;;;;;;;95.70;46.15;;;;;;;3.38;93.22;101985.34;4997106;28;20060;-77
2021/03/25 03:40:59;;;;;;;104.50;47.85;;;;;;;3.31;93.06;101983.03;4994723;28;20038;-78
2021/03/25 03:43:31;;;;;;;99.35;46.47;;;;;;;3.27;93.15;101975.44;4963399;28;20046;-77
2021/03/25 03:46:03;;;;;;;101.65;46.47;;;;;;;3.24;92.93;101983.34;5005871;28;20049;-77
2021/03/25 03:48:40;;;;;;;94.55;46.55;;;;;;;3.20;92.73;101984.41;5007676;28;20603;-77
2021/03/25 03:51:09;;;;;;;99.88;47.53;;;;;;;3.19;92.85;101980.13;4996999;28;20037;-80
2021/03/25 03:53:39;;;;;;;102.07;47.70;;;;;;;3.14;93.53;101976.91;5012947;28;20153;-78
2021/03/25 03:56:36;;;;;;;103.25;49.20;;;;;;;3.14;94.20;101985.50;5018959;28;20763;-79
2021/03/25 03:59:14;;;;;;;110.30;47.40;;;;;;;3.08;94.35;101985.78;5000651;28;20054;-77
2021/03/25 04:01:46;;;;;;;103.10;46.53;;;;;;;2.99;94.10;101986.19;5000163;28;20045;-77
2021/03/25 04:04:39;;;;;;;98.03;46.13;;;;;;;2.89;94.33;101985.75;4999729;28;20054;-76
2021/03/25 04:07:28;;;;;;;95.25;45.53;;;;;;;2.74;93.77;101982.06;5015879;28;20044;-77
2021/03/25 04:10:32;;;;;;;106.97;49.60;;;;;;;2.63;93.90;101989.44;4996345;28;20060;-76
2021/03/25 04:13:03;;;;;;;105.50;47.88;;;;;;;2.56;93.91;101983.66;4997319;28;21041;-76
2021/03/25 04:15:31;;;;;;;93.47;45.33;;;;;;;2.54;94.05;101993.25;5001418;28;20049;-76
2021/03/25 04:18:16;;;;;;;108.35;49.47;;;;;;;2.48;93.71;101990.94;4995084;28;20675;-76
2021/03/25 04:21:04;;;;;;;109.93;48.50;;;;;;;2.40;93.97;101993.00;4991456;28;20053;-77
2021/03/25 04:23:34;;;;;;;101.40;48.45;;;;;;;2.39;94.50;101991.31;5011349;28;20057;-78
2021/03/25 04:26:09;;;;;;;105.15;48.85;;;;;;;2.36;94.24;101987.09;5014582;28;20049;-79
2021/03/25 04:28:39;;;;;;;111.00;49.47;;;;;;;2.37;94.54;101993.13;5013640;28;20073;-77
2021/03/25 04:31:07;;;;;;;102.90;48.55;;;;;;;2.37;94.59;101993.94;4961214;28;20086;-77
2021/03/25 04:33:35;;;;;;;97.80;46.20;;;;;;;2.39;94.18;101994.72;5007775;28;20523;-76
2021/03/25 04:36:03;;;;;;;108.63;48.42;;;;;;;2.37;94.71;101993.13;5000101;28;20045;-77
2021/03/25 04:38:34;;;;;;;101.70;48.20;;;;;;;2.43;94.22;101996.31;5027755;28;20042;-76
2021/03/25 04:41:01;;;;;;;114.15;50.30;;;;;;;2.40;94.63;101998.19;5002398;28;20077;-77
2021/03/25 04:43:27;;;;;;;114.97;50.38;;;;;;;2.32;94.95;102001.94;4991619;28;20045;-75
2021/03/25 04:45:56;;;;;;;115.35;51.13;;;;;;;2.31;94.67;102005.41;4987340;28;20058;-75
2021/03/25 04:48:25;;;;;;;111.85;49.03;;;;;;;2.30;95.17;101995.97;5007842;28;20053;-78
2021/03/25 04:51:05;;;;;;;113.57;48.58;;;;;;;2.32;95.16;102001.09;4993045;28;20530;-76
2021/03/25 04:53:34;;;;;;;107.65;47.95;;;;;;;2.35;94.94;101998.34;5011187;28;20054;-76
2021/03/25 04:56:02;;;;;;;109.38;48.85;;;;;;;2.41;95.40;102002.44;4980694;28;20062;-76
2021/03/25 04:58:33;;;;;;;116.63;49.97;;;;;;;2.51;95.07;102006.34;4990092;28;20073;-78
2021/03/25 05:01:11;;;;;;;130.73;52.70;;;;;;;2.64;95.30;102001.50;5004208;28;20128;-76
2021/03/25 05:03:38;;;;;;;138.50;56.83;;;;;;;2.73;95.64;102004.56;5012101;28;20243;-77
2021/03/25 05:06:04;;;;;;;127.40;53.88;;;;;;;2.87;95.65;102009.13;5016695;28;20045;-77
2021/03/25 05:08:33;;;;;;;118.25;53.38;;;;;;;2.97;95.70;102013.94;5016830;28;20136;-76
2021/03/25 05:11:25;;;;;;;122.18;51.80;;;;;;;2.96;95.13;102014.81;5004418;28;20057;-75
2021/03/25 05:13:53;;;;;;;128.88;53.88;;;;;;;2.92;95.17;102017.56;4990481;28;20041;-77
2021/03/25 05:16:35;;;;;;;118.82;50.22;;;;;;;2.95;95.11;102016.59;5011478;28;20056;-76
2021/03/25 05:19:16;;;;;;;129.43;52.97;;;;;;;3.01;95.17;102018.06;5014655;28;20048;-78
2021/03/25 05:22:06;;;;;;;124.45;52.13;;;;;;;3.04;95.28;102021.38;5007326;28;20524;-79
2021/03/25 05:24:39;;;;;;;132.15;55.40;;;;;;;3.08;95.22;102020.31;4979113;28;20430;-79
2021/03/25 05:27:31;;;;;;;138.50;58.10;;;;;;;3.13;95.19;102027.91;5004871;28;20045;-77
2021/03/25 05:29:59;;;;;;;138.23;59.55;;;;;;;3.15;94.94;102026.09;5014723;28;20041;-76
2021/03/25 05:32:31;;;;;;;138.30;59.05;;;;;;;3.18;94.87;102022.53;4997347;28;20384;-77
2021/03/25 05:35:00;;;;;;;138.77;58.08;;;;;;;3.20;95.26;102024.16;4984806;28;20040;-78
2021/03/25 05:37:27;;;;;;;135.82;58.47;;;;;;;3.26;94.74;102030.81;5004097;28;20521;-78
2021/03/25 05:39:53;;;;;;;135.13;57.47;;;;;;;3.24;94.78;102035.22;5007780;28;20127;-78
2021/03/25 05:42:40;;;;;;;127.30;56.78;;;;;;;3.25;94.45;102029.97;4992164;28;20057;-77
2021/03/25 05:45:27;;;;;;;134.00;57.90;;;;;;;3.29;94.18;102033.25;5010571;28;20034;-78
2021/03/25 05:48:04;;;;;;;138.73;59.08;;;;;;;3.29;94.12;102036.69;5008365;28;20568;-77
2021/03/25 05:50:44;;;;;;;127.18;56.72;;;;;;;3.39;94.06;102038.88;4987410;28;20054;-79
2021/03/25 05:53:38;;;;;;;146.00;59.60;;;;;;;3.38;94.31;102045.81;5009078;28;20467;-78
2021/03/25 05:56:19;;;;;;;138.70;57.55;;;;;;;3.39;93.66;102037.16;5003761;28;20119;-77
2021/03/25 05:58:54;;;;;;;144.60;60.28;;;;;;;3.44;93.68;102048.13;4982416;28;20046;-77
2021/03/25 06:02:00;;;;;;;142.27;58.03;;;;;;;3.50;93.64;102037.50;4993017;28;20535;-76
2021/03/25 06:04:32;;;;;;;123.72;55.10;;;;;;;3.54;93.46;102045.13;4984005;28;20046;-78
2021/03/25 06:07:30;;;;;;;127.50;54.60;;;;;;;3.62;93.08;102051.69;4990447;28;20046;-77
2021/03/25 06:10:13;;;;;;;129.95;55.35;;;;;;;3.69;92.94;102047.91;4995575;28;20045;-74
2021/03/25 06:13:16;;;;;;;124.32;55.65;;;;;;;3.71;92.89;102058.19;5008579;28;20041;-78
2021/03/25 06:16:07;;;;;;;136.68;55.90;;;;;;;3.70;92.55;102056.53;4977863;28;21296;-76
2021/03/25 06:19:24;;;;;;;126.18;54.47;;;;;;;3.76;92.74;102065.78;4990120;28;20066;-76
2021/03/25 06:22:07;;;;;;;126.10;55.15;;;;;;;3.77;93.00;102068.31;4969504;28;20504;-76
2021/03/25 06:24:55;;;;;;;118.88;54.60;;;;;;;3.96;92.98;102072.66;4990909;28;20103;-76
2021/03/25 06:27:43;;;;;;;128.00;56.22;;;;;;;3.90;92.48;102068.59;4977072;28;20050;-78
2021/03/25 06:30:19;;;;;;;126.78;55.47;;;;;;;3.95;93.11;102082.19;4990568;28;20100;-76
2021/03/25 06:32:57;;;;;;;121.20;53.78;;;;;;;3.98;93.05;102083.81;5009139;28;20120;-78
2021/03/25 06:35:26;;;;;;;118.32;53.88;;;;;;;4.00;93.07;102079.38;4991635;28;20688;-77
2021/03/25 06:38:00;;;;;;;124.60;56.78;;;;;;;4.03;92.88;102080.09;5007703;28;20142;-77
2021/03/25 06:40:35;;;;;;;124.05;54.17;;;;;;;4.13;92.57;102079.66;5022038;28;20042;-76
2021/03/25 06:43:22;;;;;;;120.97;54.85;;;;;;;4.31;92.63;102078.78;4976295;28;20049;-76
2021/03/25 06:45:59;;;;;;;120.13;54.42;;;;;;;4.33;92.12;102082.13;5011661;28;20440;-78
2021/03/25 06:48:45;;;;;;;120.25;53.47;;;;;;;4.40;92.41;102086.13;4974748;28;20058;-77
2021/03/25 06:51:22;;;;;;;125.32;56.50;;;;;;;4.48;92.23;102084.03;5006301;28;20048;-76
2021/03/25 06:53:52;;;;;;;117.65;52.05;;;;;;;4.58;91.91;102081.81;4998929;28;20041;-77
2021/03/25 06:56:28;;;;;;;117.80;54.17;;;;;;;4.65;92.42;102084.94;4990665;28;20084;-76
2021/03/25 06:58:59;;;;;;;127.15;55.65;;;;;;;4.70;91.82;102087.31;5008783;28;20045;-76
2021/03/25 07:01:41;;;;;;;111.57;53.35;;;;;;;4.70;91.10;102093.34;5010024;28;20129;-77
2021/03/25 07:04:10;;;;;;;120.55;54.22;;;;;;;4.68;92.53;102085.63;5003400;28;20091;-78
2021/03/25 07:06:37;;;;;;;111.38;50.67;;;;;;;4.70;91.66;102088.16;5018853;28;20125;-78
2021/03/25 07:09:03;;;;;;;108.20;50.60;;;;;;;4.84;91.05;102087.47;4990094;28;20053;-77
2021/03/25 07:11:30;;;;;;;114.13;53.50;;;;;;;4.90;91.49;102092.38;4970250;28;20062;-75
2021/03/25 07:14:01;;;;;;;109.10;52.47;;;;;;;4.91;91.17;102088.84;4998258;28;20046;-76
2021/03/25 07:16:29;;;;;;;108.35;52.78;;;;;;;5.02;91.12;102096.94;5007946;28;20085;-75
2021/03/25 07:19:06;;;;;;;96.57;48.70;;;;;;;5.12;90.81;102102.53;5003703;28;20448;-78
2021/03/25 07:21:40;;;;;;;99.03;49.13;;;;;;;5.23;90.23;102102.00;4989433;28;20526;-78
2021/03/25 07:24:32;;;;;;;102.10;50.17;;;;;;;5.40;90.23;102107.16;4992879;28;20073;-76
2021/03/25 07:27:09;;;;;;;105.57;49.75;;;;;;;5.48;89.75;102109.34;4985588;28;20409;-76
2021/03/25 07:29:38;;;;;;;104.43;51.22;;;;;;;5.57;89.85;102108.03;5000255;28;20409;-78
2021/03/25 07:32:03;;;;;;;100.85;49.38;;;;;;;5.68;90.23;102108.31;4977392;28;20036;-75
2021/03/25 07:34:37;;;;;;;100.88;47.60;;;;;;;5.78;89.29;102104.31;4994285;28;20041;-78
2021/03/25 07:37:05;;;;;;;94.18;47.83;;;;;;;6.00;88.09;102100.59;5006183;28;20133;-77
2021/03/25 07:39:36;;;;;;;97.95;48.83;;;;;;;6.03;87.69;102116.06;5025118;28;20042;-76
2021/03/25 07:42:03;;;;;;;90.40;45.90;;;;;;;6.09;87.42;102117.50;4959584;28;20050;-79
2021/03/25 07:44:39;;;;;;;84.40;42.72;;;;;;;6.08;87.81;102113.19;4979430;28;20512;-75
2021/03/25 07:47:25;;;;;;;96.60;46.00;;;;;;;6.09;87.94;102115.72;4978071;28;20053;-76
2021/03/25 07:50:18;;;;;;;83.40;41.95;;;;;;;6.33;86.66;102110.06;5009612;28;20053;-78
2021/03/25 07:52:49;;;;;;;96.93;43.03;;;;;;;6.23;87.81;102118.41;4995540;28;20061;-76
2021/03/25 07:55:18;;;;;;;88.60;40.97;;;;;;;6.32;87.90;102116.22;4977695;28;20065;-78
2021/03/25 07:57:44;;;;;;;87.03;39.17;;;;;;;6.35;87.14;102116.88;5010701;28;20041;-77
2021/03/25 08:00:16;;;;;;;80.60;38.63;;;;;;;6.35;87.04;102118.66;5010429;28;20037;-78
2021/03/25 08:02:42;;;;;;;83.47;39.33;;;;;;;6.39;87.51;102121.00;5017742;28;20037;-76
2021/03/25 08:05:29;;;;;;;89.25;41.80;;;;;;;6.52;85.83;102118.56;4994679;28;20037;-76
2021/03/25 08:07:58;;;;;;;95.32;46.15;;;;;;;6.47;86.06;102123.19;4998739;28;20069;-75
2021/03/25 08:10:51;;;;;;;96.30;45.42;;;;;;;6.48;86.58;102122.25;5008465;28;21026;-75
2021/03/25 08:13:25;;;;;;;88.43;42.70;;;;;;;6.46;86.64;102120.66;4976595;28;20441;-76
2021/03/25 08:16:08;;;;;;;90.45;43.17;;;;;;;6.49;86.14;102123.09;4994269;28;20560;-79
2021/03/25 08:18:56;;;;;;;100.55;45.45;;;;;;;6.57;86.21;102126.97;5011332;28;20057;-77
2021/03/25 08:21:30;;;;;;;95.63;44.88;;;;;;;6.62;86.36;102129.28;4997637;28;20049;-78
2021/03/25 08:24:26;;;;;;;95.97;46.78;;;;;;;6.74;86.20;102133.81;4966964;28;20523;-78
2021/03/25 08:27:35;;;;;;;96.75;45.33;;;;;;;6.78;85.62;102129.25;4992108;28;20057;-77
2021/03/25 08:30:22;;;;;;;88.57;43.85;;;;;;;6.96;84.90;102132.59;5009191;28;20030;-80
2021/03/25 08:33:03;;;;;;;98.88;47.50;;;;;;;7.02;84.49;102140.88;5040253;28;20041;-74
2021/03/25 08:35:47;;;;;;;89.30;45.28;;;;;;;7.02;84.01;102135.66;5024059;28;20042;-75
2021/03/25 08:38:37;;;;;;;105.90;50.00;;;;;;;7.29;83.77;102144.56;5023517;28;20607;-77
2021/03/25 08:41:10;;;;;;;97.32;46.88;;;;;;;7.44;82.68;102142.81;4996203;28;20061;-79
2021/03/25 08:43:43;;;;;;;88.90;47.22;;;;;;;7.32;83.03;102142.63;5016051;28;20056;-80
2021/03/25 08:46:17;;;;;;;90.65;46.63;;;;;;;7.50;82.16;102145.91;5014263;28;20076;-79
2021/03/25 08:48:59;;;;;;;77.82;40.40;;;;;;;7.57;81.68;102141.16;5012628;28;20095;-78
2021/03/25 08:51:30;;;;;;;79.55;38.15;;;;;;;7.69;80.11;102140.41;4997783;28;20041;-76
2021/03/25 08:54:00;;;;;;;77.15;40.20;;;;;;;7.53;81.04;102140.50;5012135;28;20137;-76
2021/03/25 08:56:37;;;;;;;71.47;39.28;;;;;;;7.77;81.13;102139.94;4993455;28;20044;-77
2021/03/25 08:59:14;;;;;;;80.18;40.95;;;;;;;7.76;81.63;102141.72;5002162;28;20050;-76
2021/03/25 09:01:54;;;;;;;75.97;39.45;;;;;;;7.97;80.11;102136.13;5010510;28;20132;-76
2021/03/25 09:04:23;;;;;;;74.82;40.05;;;;;;;8.04;80.21;102140.00;4987568;28;20034;-74
2021/03/25 09:06:51;;;;;;;87.45;44.10;;;;;;;7.94;79.60;102131.91;4977278;28;20038;-77
2021/03/25 09:09:41;;;;;;;89.65;45.53;;;;;;;8.04;79.46;102131.34;4989563;28;20052;-78
2021/03/25 09:12:14;;;;;;;84.07;44.83;;;;;;;8.17;79.62;102124.41;5025439;28;20091;-76
2021/03/25 09:14:39;;;;;;;69.75;39.00;;;;;;;8.11;78.70;102140.47;5010908;28;20030;-76
2021/03/25 09:17:08;;;;;;;89.32;44.00;;;;;;;8.10;79.32;102134.41;5003499;28;20038;-76
2021/03/25 09:19:41;;;;;;;85.72;43.72;;;;;;;8.21;78.78;102127.66;5019202;28;20030;-77
2021/03/25 09:22:08;;;;;;;87.80;43.65;;;;;;;8.31;79.04;102120.94;4975382;28;20042;-76
2021/03/25 09:24:34;;;;;;;75.32;41.75;;;;;;;8.50;78.58;102123.22;4992209;28;20126;-74
2021/03/25 09:27:07;;;;;;;79.25;42.75;;;;;;;8.66;77.74;102125.66;5000289;28;20052;-76
2021/03/25 09:29:53;;;;;;;86.97;44.28;;;;;;;8.58;78.13;102120.94;5009723;28;20103;-78
2021/03/25 09:32:32;;;;;;;76.47;39.47;;;;;;;8.80;77.89;102116.91;4991794;28;20045;-76
2021/03/25 09:34:58;;;;;;;72.80;38.38;;;;;;;8.76;76.75;102124.16;5008627;28;20038;-76
2021/03/25 09:37:27;;;;;;;75.55;42.17;;;;;;;8.77;77.63;102113.56;5010709;28;20041;-76
2021/03/25 09:40:13;;;;;;;67.53;36.65;;;;;;;8.94;76.70;102109.81;5001616;28;20049;-76
2021/03/25 09:42:40;;;;;;;73.30;37.45;;;;;;;9.12;76.65;102110.38;5006368;28;20131;-75
2021/03/25 09:45:19;;;;;;;72.68;37.60;;;;;;;9.31;74.71;102112.59;4995988;28;20046;-76
2021/03/25 09:47:57;;;;;;;75.43;38.20;;;;;;;9.00;76.07;102108.56;4986080;28;20046;-77
2021/03/25 09:50:23;;;;;;;70.65;36.55;;;;;;;9.22;76.04;102109.75;4984549;28;20037;-76
2021/03/25 09:53:06;;;;;;;74.32;36.65;;;;;;;9.41;75.46;102114.56;4975488;28;20042;-77
2021/03/25 09:55:36;;;;;;;61.42;33.13;;;;;;;9.55;75.09;102096.16;4976376;28;20161;-77
2021/03/25 09:58:04;;;;;;;59.35;33.83;;;;;;;9.50;74.96;102101.69;4991738;28;20153;-79
2021/03/25 10:00:42;;;;;;;61.88;33.28;;;;;;;9.68;72.86;102102.19;4980819;28;20107;-77
2021/03/25 10:03:14;;;;;;;59.40;33.50;;;;;;;9.78;74.24;102107.63;4971680;28;20104;-76
2021/03/25 10:05:42;;;;;;;60.47;32.10;;;;;;;9.81;74.45;102102.16;4992119;28;20077;-76
2021/03/25 10:08:15;;;;;;;55.92;32.47;;;;;;;10.16;73.23;102095.38;5009754;28;20045;-78
2021/03/25 10:10:59;;;;;;;59.08;32.25;;;;;;;10.32;73.14;102088.94;4996601;28;20424;-76
2021/03/25 10:13:43;;;;;;;55.75;31.30;;;;;;;10.32;71.78;102091.53;5007796;28;20092;-76
2021/03/25 10:16:33;;;;;;;58.38;30.10;;;;;;;10.33;71.68;102089.75;5018019;28;20121;-77
2021/03/25 10:19:02;;;;;;;56.05;29.70;;;;;;;10.44;71.58;102088.97;4992225;28;20048;-75
2021/03/25 10:21:55;;;;;;;52.53;29.05;;;;;;;10.80;70.38;102089.81;4973916;28;20054;-76
2021/03/25 10:24:30;;;;;;;59.90;30.13;;;;;;;10.90;70.45;102096.03;4991737;28;20080;-75
2021/03/25 10:27:31;;;;;;;58.95;30.63;;;;;;;10.91;70.26;102085.44;4989372;28;20152;-78
2021/03/25 10:29:57;;;;;;;55.85;29.73;;;;;;;10.91;71.29;102081.97;4983850;28;20129;-76
2021/03/25 10:32:36;;;;;;;56.47;29.95;;;;;;;10.97;69.75;102091.19;5013733;28;20503;-78
2021/03/25 10:35:05;;;;;;;50.17;27.38;;;;;;;11.05;68.93;102078.28;4986430;28;20123;-77
2021/03/25 10:37:42;;;;;;;47.20;26.73;;;;;;;11.28;68.65;102072.13;5008220;28;20050;-77
2021/03/25 10:40:25;;;;;;;45.75;26.48;;;;;;;11.17;67.96;102074.75;5004089;28;20038;-78
2021/03/25 10:42:56;;;;;;;49.85;26.77;;;;;;;11.36;67.23;102068.03;5001421;28;20047;-79
2021/03/25 10:45:45;;;;;;;49.38;26.70;;;;;;;11.56;67.99;102069.94;4995987;28;20089;-78
2021/03/25 10:48:19;;;;;;;48.35;25.42;;;;;;;11.85;66.39;102069.47;4991813;28;20050;-80
2021/03/25 10:50:56;;;;;;;44.90;23.33;;;;;;;11.94;64.72;102063.50;4991095;28;20070;-78
2021/03/25 10:53:25;;;;;;;42.95;24.00;;;;;;;12.15;64.37;102058.31;4985698;28;20045;-79
2021/03/25 10:56:01;;;;;;;43.38;23.20;;;;;;;12.12;63.47;102055.91;4993705;28;20046;-79
2021/03/25 10:58:32;;;;;;;47.70;24.38;;;;;;;11.85;64.18;102054.50;4992193;28;20456;-78
2021/03/25 11:01:15;;;;;;;49.13;23.08;;;;;;;11.85;63.37;102049.25;5017923;28;20049;-78
2021/03/25 11:03:42;;;;;;;40.58;21.52;;;;;;;12.07;61.97;102042.28;4991966;28;20116;-79
2021/03/25 11:06:16;;;;;;;37.60;21.30;;;;;;;12.27;62.46;102040.66;4987904;28;20145;-82
2021/03/25 11:08:42;;;;;;;35.55;19.50;;;;;;;12.44;61.51;102024.31;5014660;28;20255;-81
2021/03/25 11:11:24;;;;;;;36.60;20.30;;;;;;;12.73;61.06;102028.13;5009201;28;20041;-80
2021/03/25 11:14:00;;;;;;;31.70;18.58;;;;;;;12.83;59.27;102021.94;5034982;28;20055;-80
2021/03/25 11:16:27;;;;;;;38.05;19.73;;;;;;;13.02;59.96;102023.03;4981764;28;20045;-80
2021/03/25 11:19:08;;;;;;;31.25;18.23;;;;;;;13.37;57.73;102016.53;5011579;28;20057;-80
2021/03/25 11:21:38;;;;;;;27.70;15.73;;;;;;;13.40;57.32;102024.16;5012131;28;20042;-80
2021/03/25 11:24:12;;;;;;;26.00;15.73;;;;;;;13.51;55.34;102028.50;5006359;28;20169;-79
2021/03/25 11:26:38;;;;;;;26.58;15.50;;;;;;;13.70;55.88;102027.72;4992414;28;20506;-82
2021/03/25 11:29:16;;;;;;;24.20;13.80;;;;;;;13.91;53.86;102031.09;4994913;28;20046;-79
2021/03/25 11:31:42;;;;;;;26.33;14.75;;;;;;;13.70;53.56;102028.56;5008718;28;20041;-79
2021/03/25 11:34:08;;;;;;;28.95;14.55;;;;;;;13.59;55.72;102037.41;4987757;28;20042;-78
2021/03/25 11:36:35;;;;;;;31.08;17.73;;;;;;;13.33;56.81;102033.56;5002722;28;20042;-79
2021/03/25 11:39:29;;;;;;;25.85;15.77;;;;;;;13.46;54.33;102030.72;5017685;28;20068;-80
2021/03/25 11:41:58;;;;;;;23.67;14.30;;;;;;;12.99;54.11;102032.00;4970531;28;20053;-82
2021/03/25 11:44:47;;;;;;;27.58;15.63;;;;;;;12.74;57.00;102032.44;5011026;28;20046;-78
2021/03/25 11:47:21;;;;;;;40.83;20.38;;;;;;;12.34;58.49;102027.84;5011061;28;20042;-81
2021/03/25 11:49:47;;;;;;;29.75;16.05;;;;;;;12.29;57.03;102027.41;4979949;28;20049;-78
2021/03/25 11:52:13;;;;;;;31.60;16.30;;;;;;;12.39;57.63;102015.97;5006018;28;20512;-78